메인 페이지
METAR-TAF:

METAR-TAF

공항 :

Eagle, 콜로라도, 미국

위도: 39-39N, 경도: 106-55W, 고도: 1993m

현재 날씨관측

예보는 45분 전, 00:56시(UTC)에 발표되었습니다.
5kt
온도 2°C
습도 69%
기압 1021 hPa
시정: 16.1km
고도 3800ft 상공 구름 많음
고도 4700ft 상공 흐림

METAR: KEGE 170056Z 26005KT 10SM BKN038 OVC047 02/M03 A3015 RMK AO2 SLP249 T00171028

시각: 18:41 (01:41 UTC)

예보

예보는 2 시간 21분 전, 23:20시(UTC)에 발표되었습니다.
예보 대상 시간: 17일 00시부터 17일 24시까지 (UTC)
서남서14kt
시정: 10km
고도 6000ft 상공 구름 조금
고도 8000ft 상공 구름 많음
고도 9000ft 상공 흐림
시계 내 소나기
17일 0200시부터 (UTC)
서남서8kt
시정: 10km
고도 3500ft 상공 구름 보통
고도 8000ft 상공 구름 많음
시계 내 소나기
17일 0500시부터 (UTC)
남남서6kt
시정: 10km
고도 3500ft 상공 구름 보통
고도 6000ft 상공 구름 많음
17일 0800시부터 (UTC)
5kt
시정: 10km
고도 4000ft 상공 구름 보통
고도 6000ft 상공 구름 많음
17일 1500시부터 (UTC)
여러 방향의 바람 3kt
시정: 10km
고도 7000ft 상공 구름 보통
고도 9000ft 상공 구름 많음

TAF: KEGE 162320Z 1700/1724 24014KT P6SM VCSH FEW060 BKN080 OVC090 FM170200 24008KT P6SM VCSH SCT035 BKN080 FM170500 21006KT P6SM SCT035 BKN060 FM170800 18005KT P6SM SCT040 BKN060 FM171500 VRB03KT P6SM SCT070 BKN090

4,000개 이상의 공항 관측 자료 및 예보 (METAR 및 TAF 보고).

지도상에서 검색 가능한 기상관측소가 노란 점과 빨간 점으로 표시되어 있습니다.

기상관측소 명을 보려면 표시 위로 마우스를 이동하세요.

날씨 관측과 예보를 보려면 클릭하세요.

지도 변경 : 확대하려면 엑스 표시가 있는 녹색 버튼, 축소하려면 빼기 표시가 있는 녹색 버튼, 다음 페이지의 지도를 보려면 녹색 화살표를 클릭하세요.


METAR-TAF: